sensor_id;sensor_type;location;lat;lon;timestamp;P1;durP1;ratioP1;P2;durP2;ratioP2
47483;SDS011;54076;50.322;18.650;2023-01-13T08:06:21;6.00;;;3.00;;
47483;SDS011;54076;50.322;18.650;2023-01-13T08:11:22;7.20;;;3.30;;
47483;SDS011;54076;50.322;18.650;2023-01-13T08:16:24;7.50;;;3.40;;
47483;SDS011;54076;50.322;18.650;2023-01-13T08:21:25;8.20;;;3.60;;
47483;SDS011;54076;50.322;18.650;2023-01-13T08:26:26;9.30;;;3.50;;
47483;SDS011;54076;50.322;18.650;2023-01-13T08:31:27;8.10;;;4.00;;
47483;SDS011;54076;50.322;18.650;2023-01-13T08:36:28;9.70;;;3.80;;
47483;SDS011;54076;50.322;18.650;2023-01-13T08:41:29;7.90;;;3.90;;
47483;SDS011;54076;50.322;18.650;2023-01-13T08:46:49;10.80;;;4.20;;
47483;SDS011;54076;50.322;18.650;2023-01-13T08:51:51;9.20;;;4.20;;
47483;SDS011;54076;50.322;18.650;2023-01-13T08:56:52;9.00;;;3.60;;
47483;SDS011;54076;50.322;18.650;2023-01-13T09:01:53;8.50;;;4.20;;
47483;SDS011;54076;50.322;18.650;2023-01-13T09:06:55;8.50;;;4.40;;
47483;SDS011;54076;50.322;18.650;2023-01-13T09:11:56;8.50;;;4.00;;
47483;SDS011;54076;50.322;18.650;2023-01-13T09:17:16;7.10;;;3.40;;
47483;SDS011;54076;50.322;18.650;2023-01-13T09:22:18;11.30;;;4.40;;
47483;SDS011;54076;50.322;18.650;2023-01-13T09:27:20;10.00;;;4.70;;
47483;SDS011;54076;50.322;18.650;2023-01-13T09:32:22;11.70;;;4.30;;
47483;SDS011;54076;50.322;18.650;2023-01-13T09:37:23;9.60;;;4.20;;
47483;SDS011;54076;50.322;18.650;2023-01-13T09:42:27;9.80;;;4.20;;
47483;SDS011;54076;50.322;18.650;2023-01-13T09:48:31;11.50;;;3.70;;
47483;SDS011;54076;50.322;18.650;2023-01-13T09:54:33;6.20;;;3.40;;
47483;SDS011;54076;50.322;18.650;2023-01-13T09:59:38;7.60;;;3.30;;
47483;SDS011;54076;50.322;18.650;2023-01-13T10:04:40;9.70;;;3.50;;
47483;SDS011;54076;50.322;18.650;2023-01-13T10:09:51;10.20;;;3.70;;
47483;SDS011;54076;50.322;18.650;2023-01-13T10:14:54;9.80;;;3.90;;
47483;SDS011;54076;50.322;18.650;2023-01-13T10:20:20;6.80;;;3.80;;
47483;SDS011;54076;50.322;18.650;2023-01-13T10:25:52;9.00;;;3.70;;
47483;SDS011;54076;50.322;18.650;2023-01-13T10:31:01;8.80;;;3.80;;
47483;SDS011;54076;50.322;18.650;2023-01-13T10:36:13;8.40;;;4.10;;
47483;SDS011;54076;50.322;18.650;2023-01-13T10:41:25;13.20;;;3.90;;
47483;SDS011;54076;50.322;18.650;2023-01-13T10:46:28;8.20;;;4.00;;
47483;SDS011;54076;50.322;18.650;2023-01-13T10:56:40;8.80;;;3.90;;
47483;SDS011;54076;50.322;18.650;2023-01-13T11:02:09;8.30;;;3.80;;
47483;SDS011;54076;50.322;18.650;2023-01-13T11:07:29;9.70;;;3.80;;
47483;SDS011;54076;50.322;18.650;2023-01-13T11:23:36;8.60;;;3.80;;
47483;SDS011;54076;50.322;18.650;2023-01-13T11:29:01;9.20;;;3.80;;
47483;SDS011;54076;50.322;18.650;2023-01-13T11:39:43;8.50;;;4.00;;
47483;SDS011;54076;50.322;18.650;2023-01-13T11:50:30;7.20;;;3.30;;
47483;SDS011;54076;50.322;18.650;2023-01-13T11:55:52;9.00;;;3.20;;
47483;SDS011;54076;50.322;18.650;2023-01-13T12:01:25;8.10;;;3.70;;
47483;SDS011;54076;50.322;18.650;2023-01-13T12:06:34;10.30;;;3.80;;
47483;SDS011;54076;50.322;18.650;2023-01-13T12:11:53;8.20;;;4.10;;
47483;SDS011;54076;50.322;18.650;2023-01-13T12:17:33;10.20;;;4.70;;
47483;SDS011;54076;50.322;18.650;2023-01-13T12:22:41;11.10;;;3.80;;
47483;SDS011;54076;50.322;18.650;2023-01-13T12:33:04;8.70;;;4.10;;
47483;SDS011;54076;50.322;18.650;2023-01-13T12:38:44;10.80;;;4.30;;
47483;SDS011;54076;50.322;18.650;2023-01-13T12:43:48;6.80;;;3.60;;
47483;SDS011;54076;50.322;18.650;2023-01-13T12:49:33;11.20;;;3.70;;
47483;SDS011;54076;50.322;18.650;2023-01-13T12:59:36;9.20;;;3.90;;
47483;SDS011;54076;50.322;18.650;2023-01-13T13:10:02;13.20;;;4.40;;
47483;SDS011;54076;50.322;18.650;2023-01-13T13:15:27;9.30;;;4.60;;
47483;SDS011;54076;50.322;18.650;2023-01-13T13:42:27;10.20;;;3.70;;
47483;SDS011;54076;50.322;18.650;2023-01-13T13:47:53;10.50;;;3.90;;
47483;SDS011;54076;50.322;18.650;2023-01-13T13:53:00;9.30;;;4.00;;
47483;SDS011;54076;50.322;18.650;2023-01-13T13:58:12;8.00;;;4.00;;
47483;SDS011;54076;50.322;18.650;2023-01-13T14:08:28;9.20;;;4.30;;
47483;SDS011;54076;50.322;18.650;2023-01-13T14:13:31;9.80;;;3.90;;
47483;SDS011;54076;50.322;18.650;2023-01-13T14:18:43;8.60;;;3.80;;
47483;SDS011;54076;50.322;18.650;2023-01-13T14:24:12;8.80;;;4.20;;
47483;SDS011;54076;50.322;18.650;2023-01-13T14:29:15;10.20;;;3.90;;
47483;SDS011;54076;50.322;18.650;2023-01-13T14:34:24;9.70;;;4.20;;
47483;SDS011;54076;50.322;18.650;2023-01-13T14:39:36;7.40;;;3.40;;
47483;SDS011;54076;50.322;18.650;2023-01-13T14:44:44;7.90;;;3.90;;
47483;SDS011;54076;50.322;18.650;2023-01-13T15:15:48;9.00;;;4.30;;
47483;SDS011;54076;50.322;18.650;2023-01-13T15:20:52;10.50;;;4.90;;
47483;SDS011;54076;50.322;18.650;2023-01-13T15:25:53;10.30;;;4.70;;
47483;SDS011;54076;50.322;18.650;2023-01-13T15:30:55;11.40;;;5.40;;
47483;SDS011;54076;50.322;18.650;2023-01-13T15:36:00;11.40;;;5.30;;
47483;SDS011;54076;50.322;18.650;2023-01-13T15:41:01;10.00;;;4.50;;
47483;SDS011;54076;50.322;18.650;2023-01-13T15:46:05;11.10;;;5.00;;
47483;SDS011;54076;50.322;18.650;2023-01-13T15:51:37;11.40;;;5.10;;
47483;SDS011;54076;50.322;18.650;2023-01-13T15:56:40;12.30;;;4.70;;
47483;SDS011;54076;50.322;18.650;2023-01-13T16:01:42;9.10;;;5.20;;
47483;SDS011;54076;50.322;18.650;2023-01-13T16:06:44;11.10;;;4.90;;
47483;SDS011;54076;50.322;18.650;2023-01-13T16:11:47;11.90;;;5.00;;
47483;SDS011;54076;50.322;18.650;2023-01-13T16:16:48;10.10;;;5.00;;
47483;SDS011;54076;50.322;18.650;2023-01-13T16:21:49;10.70;;;4.90;;
47483;SDS011;54076;50.322;18.650;2023-01-13T16:26:50;13.90;;;5.90;;
47483;SDS011;54076;50.322;18.650;2023-01-13T16:31:51;11.00;;;5.20;;
47483;SDS011;54076;50.322;18.650;2023-01-13T16:36:52;12.10;;;5.60;;
47483;SDS011;54076;50.322;18.650;2023-01-13T16:41:53;10.80;;;5.30;;
47483;SDS011;54076;50.322;18.650;2023-01-13T16:46:56;10.90;;;4.80;;
47483;SDS011;54076;50.322;18.650;2023-01-13T16:51:57;12.50;;;6.00;;
47483;SDS011;54076;50.322;18.650;2023-01-13T16:56:58;13.80;;;6.80;;
47483;SDS011;54076;50.322;18.650;2023-01-13T17:01:59;14.80;;;5.90;;
47483;SDS011;54076;50.322;18.650;2023-01-13T17:07:08;13.00;;;6.10;;
47483;SDS011;54076;50.322;18.650;2023-01-13T17:12:12;12.40;;;5.70;;
47483;SDS011;54076;50.322;18.650;2023-01-13T17:17:24;12.80;;;5.90;;
47483;SDS011;54076;50.322;18.650;2023-01-13T17:22:26;13.70;;;6.60;;
47483;SDS011;54076;50.322;18.650;2023-01-13T17:27:27;13.80;;;6.00;;
47483;SDS011;54076;50.322;18.650;2023-01-13T17:32:28;16.50;;;6.90;;
47483;SDS011;54076;50.322;18.650;2023-01-13T17:37:30;15.00;;;6.40;;
47483;SDS011;54076;50.322;18.650;2023-01-13T17:42:31;15.70;;;6.80;;
47483;SDS011;54076;50.322;18.650;2023-01-13T17:47:32;17.10;;;6.00;;
47483;SDS011;54076;50.322;18.650;2023-01-13T17:52:33;13.20;;;5.80;;
47483;SDS011;54076;50.322;18.650;2023-01-13T17:57:34;15.40;;;6.10;;
47483;SDS011;54076;50.322;18.650;2023-01-13T18:02:35;14.90;;;7.30;;
47483;SDS011;54076;50.322;18.650;2023-01-13T18:07:36;14.40;;;7.20;;
47483;SDS011;54076;50.322;18.650;2023-01-13T18:12:37;13.90;;;6.60;;
47483;SDS011;54076;50.322;18.650;2023-01-13T18:17:38;12.20;;;6.30;;
47483;SDS011;54076;50.322;18.650;2023-01-13T18:22:40;14.40;;;8.00;;
47483;SDS011;54076;50.322;18.650;2023-01-13T18:27:59;13.60;;;6.30;;
47483;SDS011;54076;50.322;18.650;2023-01-13T18:33:02;14.90;;;6.50;;
47483;SDS011;54076;50.322;18.650;2023-01-13T18:38:03;15.70;;;7.30;;
47483;SDS011;54076;50.322;18.650;2023-01-13T18:43:04;17.30;;;7.40;;
47483;SDS011;54076;50.322;18.650;2023-01-13T18:48:05;16.00;;;7.00;;
47483;SDS011;54076;50.322;18.650;2023-01-13T18:53:06;14.30;;;6.50;;
47483;SDS011;54076;50.322;18.650;2023-01-13T18:58:07;15.50;;;7.20;;
47483;SDS011;54076;50.322;18.650;2023-01-13T19:03:08;14.00;;;6.20;;
47483;SDS011;54076;50.322;18.650;2023-01-13T19:08:11;13.90;;;6.30;;
47483;SDS011;54076;50.322;18.650;2023-01-13T19:13:12;15.30;;;7.20;;
47483;SDS011;54076;50.322;18.650;2023-01-13T19:18:15;11.80;;;5.70;;
47483;SDS011;54076;50.322;18.650;2023-01-13T19:23:16;14.90;;;7.30;;
47483;SDS011;54076;50.322;18.650;2023-01-13T19:28:18;15.50;;;7.60;;
47483;SDS011;54076;50.322;18.650;2023-01-13T19:33:20;14.20;;;6.90;;
47483;SDS011;54076;50.322;18.650;2023-01-13T19:38:22;13.90;;;6.50;;
47483;SDS011;54076;50.322;18.650;2023-01-13T19:43:24;16.60;;;7.00;;
47483;SDS011;54076;50.322;18.650;2023-01-13T19:48:44;15.00;;;6.90;;
47483;SDS011;54076;50.322;18.650;2023-01-13T19:53:46;17.40;;;7.50;;
47483;SDS011;54076;50.322;18.650;2023-01-13T19:58:47;14.00;;;7.20;;
47483;SDS011;54076;50.322;18.650;2023-01-13T20:03:50;15.30;;;7.40;;
47483;SDS011;54076;50.322;18.650;2023-01-13T20:08:51;16.20;;;6.90;;
47483;SDS011;54076;50.322;18.650;2023-01-13T20:13:52;14.70;;;6.40;;
47483;SDS011;54076;50.322;18.650;2023-01-13T20:18:54;15.30;;;7.80;;
47483;SDS011;54076;50.322;18.650;2023-01-13T20:23:55;14.20;;;6.80;;
47483;SDS011;54076;50.322;18.650;2023-01-13T20:28:56;15.40;;;7.30;;
47483;SDS011;54076;50.322;18.650;2023-01-13T20:33:58;15.60;;;7.00;;
47483;SDS011;54076;50.322;18.650;2023-01-13T20:39:00;16.60;;;7.70;;
47483;SDS011;54076;50.322;18.650;2023-01-13T20:44:03;18.30;;;8.40;;
47483;SDS011;54076;50.322;18.650;2023-01-13T20:49:06;18.80;;;8.20;;
47483;SDS011;54076;50.322;18.650;2023-01-13T20:54:09;19.80;;;8.20;;
47483;SDS011;54076;50.322;18.650;2023-01-13T20:59:10;16.00;;;8.30;;
47483;SDS011;54076;50.322;18.650;2023-01-13T21:04:11;17.70;;;8.10;;
47483;SDS011;54076;50.322;18.650;2023-01-13T21:09:12;19.40;;;8.60;;
47483;SDS011;54076;50.322;18.650;2023-01-13T21:19:33;14.80;;;7.30;;
47483;SDS011;54076;50.322;18.650;2023-01-13T21:24:34;17.00;;;7.70;;
47483;SDS011;54076;50.322;18.650;2023-01-13T21:29:35;16.20;;;8.50;;
47483;SDS011;54076;50.322;18.650;2023-01-13T21:34:36;17.60;;;8.20;;
47483;SDS011;54076;50.322;18.650;2023-01-13T21:39:38;17.10;;;7.00;;
47483;SDS011;54076;50.322;18.650;2023-01-13T21:44:39;14.60;;;6.90;;
47483;SDS011;54076;50.322;18.650;2023-01-13T21:49:59;14.90;;;7.10;;
47483;SDS011;54076;50.322;18.650;2023-01-13T21:55:01;16.90;;;7.80;;
47483;SDS011;54076;50.322;18.650;2023-01-13T22:00:26;20.20;;;8.30;;
47483;SDS011;54076;50.322;18.650;2023-01-13T22:05:29;17.50;;;8.20;;
47483;SDS011;54076;50.322;18.650;2023-01-13T22:10:31;15.70;;;7.90;;
47483;SDS011;54076;50.322;18.650;2023-01-13T22:15:33;16.10;;;6.90;;
47483;SDS011;54076;50.322;18.650;2023-01-13T22:20:34;16.40;;;8.10;;
47483;SDS011;54076;50.322;18.650;2023-01-13T22:25:36;17.00;;;7.80;;
47483;SDS011;54076;50.322;18.650;2023-01-13T22:30:37;14.50;;;7.20;;
47483;SDS011;54076;50.322;18.650;2023-01-13T22:35:38;17.40;;;8.60;;
47483;SDS011;54076;50.322;18.650;2023-01-13T22:40:39;16.00;;;7.50;;
47483;SDS011;54076;50.322;18.650;2023-01-13T22:45:40;14.50;;;8.20;;
47483;SDS011;54076;50.322;18.650;2023-01-13T22:50:42;17.50;;;8.00;;
47483;SDS011;54076;50.322;18.650;2023-01-13T22:55:52;13.70;;;7.60;;
47483;SDS011;54076;50.322;18.650;2023-01-13T23:00:55;14.20;;;6.90;;
47483;SDS011;54076;50.322;18.650;2023-01-13T23:05:57;13.90;;;7.10;;
47483;SDS011;54076;50.322;18.650;2023-01-13T23:11:02;15.70;;;6.60;;
47483;SDS011;54076;50.322;18.650;2023-01-13T23:16:08;13.10;;;7.70;;
47483;SDS011;54076;50.322;18.650;2023-01-13T23:21:11;14.30;;;7.00;;
47483;SDS011;54076;50.322;18.650;2023-01-13T23:26:15;15.50;;;7.30;;
47483;SDS011;54076;50.322;18.650;2023-01-13T23:31:20;13.60;;;6.50;;
47483;SDS011;54076;50.322;18.650;2023-01-13T23:36:23;13.50;;;6.60;;
47483;SDS011;54076;50.322;18.650;2023-01-13T23:41:26;12.80;;;6.90;;
47483;SDS011;54076;50.322;18.650;2023-01-13T23:46:29;15.40;;;6.70;;
47483;SDS011;54076;50.322;18.650;2023-01-13T23:51:32;12.00;;;6.30;;
47483;SDS011;54076;50.322;18.650;2023-01-13T23:56:33;13.20;;;6.60;;
